sensor_id;sensor_type;location;lat;lon;timestamp;pressure;altitude;pressure_sealevel;temperature;humidity
54266;BME280;40836;39.770;2.714;2022-08-01T00:00:22;101461.91;;;27.78;57.54
54266;BME280;40836;39.770;2.714;2022-08-01T00:02:48;101454.78;;;27.77;57.38
54266;BME280;40836;39.770;2.714;2022-08-01T00:05:13;101457.13;;;27.64;57.54
54266;BME280;40836;39.770;2.714;2022-08-01T00:07:39;101455.13;;;27.64;58.02
54266;BME280;40836;39.770;2.714;2022-08-01T00:10:06;101429.41;;;27.53;58.21
54266;BME280;40836;39.770;2.714;2022-08-01T00:12:32;101451.59;;;27.57;57.79
54266;BME280;40836;39.770;2.714;2022-08-01T00:14:58;101434.19;;;27.45;58.14
54266;BME280;40836;39.770;2.714;2022-08-01T00:17:23;101405.25;;;27.32;58.10
54266;BME280;40836;39.770;2.714;2022-08-01T00:19:49;101437.31;;;27.51;58.50
54266;BME280;40836;39.770;2.714;2022-08-01T00:22:14;101444.44;;;27.41;58.41
54266;BME280;40836;39.770;2.714;2022-08-01T00:24:40;101442.88;;;27.44;58.20
54266;BME280;40836;39.770;2.714;2022-08-01T00:27:05;101440.09;;;27.40;57.99
54266;BME280;40836;39.770;2.714;2022-08-01T00:29:30;101417.13;;;27.26;58.21
54266;BME280;40836;39.770;2.714;2022-08-01T00:31:56;101402.88;;;27.24;58.02
54266;BME280;40836;39.770;2.714;2022-08-01T00:34:21;101432.16;;;27.35;58.26
54266;BME280;40836;39.770;2.714;2022-08-01T00:36:47;101429.00;;;27.26;58.75
54266;BME280;40836;39.770;2.714;2022-08-01T00:39:12;101426.16;;;27.12;59.62
54266;BME280;40836;39.770;2.714;2022-08-01T00:41:38;101444.34;;;27.09;60.18
54266;BME280;40836;39.770;2.714;2022-08-01T00:44:06;101440.78;;;27.02;60.39
54266;BME280;40836;39.770;2.714;2022-08-01T00:46:32;101427.75;;;27.09;60.21
54266;BME280;40836;39.770;2.714;2022-08-01T00:48:59;101432.50;;;27.09;59.82
54266;BME280;40836;39.770;2.714;2022-08-01T00:51:26;101420.22;;;27.06;59.93
54266;BME280;40836;39.770;2.714;2022-08-01T00:53:51;101423.75;;;27.03;60.07
54266;BME280;40836;39.770;2.714;2022-08-01T00:56:19;101421.41;;;27.05;59.84
54266;BME280;40836;39.770;2.714;2022-08-01T00:58:46;101417.84;;;27.05;60.17
54266;BME280;40836;39.770;2.714;2022-08-01T01:01:11;101432.50;;;27.09;59.64
54266;BME280;40836;39.770;2.714;2022-08-01T01:03:37;101425.38;;;27.08;60.01
54266;BME280;40836;39.770;2.714;2022-08-01T01:08:48;101422.59;;;27.04;59.56
54266;BME280;40836;39.770;2.714;2022-08-01T01:11:25;101432.47;;;27.02;59.68
54266;BME280;40836;39.770;2.714;2022-08-01T01:13:57;101428.13;;;27.04;60.04
54266;BME280;40836;39.770;2.714;2022-08-01T01:16:26;101437.22;;;26.97;60.31
54266;BME280;40836;39.770;2.714;2022-08-01T01:19:01;101439.56;;;26.95;61.06
54266;BME280;40836;39.770;2.714;2022-08-01T01:24:38;101425.28;;;26.83;60.69
54266;BME280;40836;39.770;2.714;2022-08-01T01:29:43;101422.16;;;26.88;60.53
54266;BME280;40836;39.770;2.714;2022-08-01T01:34:43;101420.19;;;26.92;59.76
54266;BME280;40836;39.770;2.714;2022-08-01T01:37:13;101425.72;;;26.95;59.64
54266;BME280;40836;39.770;2.714;2022-08-01T01:39:41;101419.78;;;26.97;58.53
54266;BME280;40836;39.770;2.714;2022-08-01T01:42:08;101424.19;;;27.05;57.48
54266;BME280;40836;39.770;2.714;2022-08-01T01:44:35;101424.59;;;27.11;57.41
54266;BME280;40836;39.770;2.714;2022-08-01T01:47:02;101428.59;;;27.13;57.70
54266;BME280;40836;39.770;2.714;2022-08-01T01:49:28;101426.94;;;27.05;57.95
54266;BME280;40836;39.770;2.714;2022-08-01T01:51:57;101404.78;;;26.94;58.13
54266;BME280;40836;39.770;2.714;2022-08-01T01:54:28;101418.63;;;27.02;57.70
54266;BME280;40836;39.770;2.714;2022-08-01T01:56:57;101415.06;;;26.97;58.03
54266;BME280;40836;39.770;2.714;2022-08-01T01:59:26;101417.81;;;26.90;58.19
54266;BME280;40836;39.770;2.714;2022-08-01T02:01:55;101423.75;;;26.92;58.64
54266;BME280;40836;39.770;2.714;2022-08-01T02:04:23;101419.78;;;26.90;59.14
54266;BME280;40836;39.770;2.714;2022-08-01T02:06:50;101420.19;;;26.85;59.19
54266;BME280;40836;39.770;2.714;2022-08-01T02:09:18;101420.53;;;26.80;59.21
54266;BME280;40836;39.770;2.714;2022-08-01T02:11:46;101416.56;;;26.73;59.63
54266;BME280;40836;39.770;2.714;2022-08-01T02:14:14;101418.91;;;26.68;59.87
54266;BME280;40836;39.770;2.714;2022-08-01T02:16:43;101408.22;;;26.59;59.91
54266;BME280;40836;39.770;2.714;2022-08-01T02:19:09;101417.31;;;26.56;60.03
54266;BME280;40836;39.770;2.714;2022-08-01T02:21:46;101414.13;;;26.58;60.14
54266;BME280;40836;39.770;2.714;2022-08-01T02:27:01;101411.28;;;26.43;60.65
54266;BME280;40836;39.770;2.714;2022-08-01T02:29:38;101414.81;;;26.37;61.13
54266;BME280;40836;39.770;2.714;2022-08-01T02:32:06;101414.03;;;26.36;61.17
54266;BME280;40836;39.770;2.714;2022-08-01T02:34:34;101414.38;;;26.31;61.18
54266;BME280;40836;39.770;2.714;2022-08-01T02:37:02;101413.13;;;26.21;61.33
54266;BME280;40836;39.770;2.714;2022-08-01T02:39:29;101413.94;;;26.22;61.36
54266;BME280;40836;39.770;2.714;2022-08-01T02:41:59;101415.13;;;26.21;61.06
54266;BME280;40836;39.770;2.714;2022-08-01T02:44:29;101422.19;;;26.18;60.85
54266;BME280;40836;39.770;2.714;2022-08-01T02:46:59;101415.47;;;26.16;61.40
54266;BME280;40836;39.770;2.714;2022-08-01T02:49:30;101417.06;;;26.13;61.65
54266;BME280;40836;39.770;2.714;2022-08-01T02:51:56;101411.88;;;26.08;61.41
54266;BME280;40836;39.770;2.714;2022-08-01T02:54:25;101413.88;;;26.11;61.76
54266;BME280;40836;39.770;2.714;2022-08-01T02:56:51;101405.56;;;26.08;61.91
54266;BME280;40836;39.770;2.714;2022-08-01T02:59:18;101414.66;;;26.08;61.48
54266;BME280;40836;39.770;2.714;2022-08-01T03:01:46;101408.31;;;26.08;61.36
54266;BME280;40836;39.770;2.714;2022-08-01T03:04:12;101401.19;;;26.03;60.77
54266;BME280;40836;39.770;2.714;2022-08-01T03:06:40;101411.84;;;26.04;61.10
54266;BME280;40836;39.770;2.714;2022-08-01T03:09:07;101408.31;;;26.04;61.38
54266;BME280;40836;39.770;2.714;2022-08-01T03:11:34;101406.69;;;25.99;61.44
54266;BME280;40836;39.770;2.714;2022-08-01T03:14:06;101404.66;;;25.93;61.90
54266;BME280;40836;39.770;2.714;2022-08-01T03:16:33;101405.84;;;25.92;61.94
54266;BME280;40836;39.770;2.714;2022-08-01T03:19:01;101415.72;;;25.93;61.29
54266;BME280;40836;39.770;2.714;2022-08-01T03:21:27;101408.22;;;25.93;61.26
54266;BME280;40836;39.770;2.714;2022-08-01T03:23:55;101412.16;;;25.89;61.62
54266;BME280;40836;39.770;2.714;2022-08-01T03:26:27;101410.91;;;25.82;62.06
54266;BME280;40836;39.770;2.714;2022-08-01T03:28:56;101411.63;;;25.76;62.20
54266;BME280;40836;39.770;2.714;2022-08-01T03:31:23;101399.31;;;25.66;62.31
54266;BME280;40836;39.770;2.714;2022-08-01T03:33:50;101413.91;;;25.67;62.86
54266;BME280;40836;39.770;2.714;2022-08-01T03:36:16;101411.19;;;25.70;62.66
54266;BME280;40836;39.770;2.714;2022-08-01T03:38:47;101414.34;;;25.72;62.38
54266;BME280;40836;39.770;2.714;2022-08-01T03:41:19;101411.13;;;25.63;62.52
54266;BME280;40836;39.770;2.714;2022-08-01T03:43:58;101414.31;;;25.65;62.53
54266;BME280;40836;39.770;2.714;2022-08-01T03:46:36;101408.41;;;25.70;61.23
54266;BME280;40836;39.770;2.714;2022-08-01T03:49:07;101409.34;;;25.85;60.61
54266;BME280;40836;39.770;2.714;2022-08-01T03:51:36;101391.16;;;25.80;60.61
54266;BME280;40836;39.770;2.714;2022-08-01T03:54:04;101393.97;;;25.84;59.95
54266;BME280;40836;39.770;2.714;2022-08-01T03:56:30;101409.41;;;25.92;60.24
54266;BME280;40836;39.770;2.714;2022-08-01T03:59:01;101408.63;;;25.92;60.19
54266;BME280;40836;39.770;2.714;2022-08-01T04:01:28;101403.84;;;25.85;60.30
54266;BME280;40836;39.770;2.714;2022-08-01T04:03:58;101413.69;;;25.86;59.99
54266;BME280;40836;39.770;2.714;2022-08-01T04:06:24;101407.72;;;25.80;60.20
54266;BME280;40836;39.770;2.714;2022-08-01T04:08:50;101412.41;;;25.76;59.98
54266;BME280;40836;39.770;2.714;2022-08-01T04:11:26;101421.50;;;25.77;60.56
54266;BME280;40836;39.770;2.714;2022-08-01T04:13:53;101423.47;;;25.76;60.58
54266;BME280;40836;39.770;2.714;2022-08-01T04:16:20;101430.94;;;25.72;60.40
54266;BME280;40836;39.770;2.714;2022-08-01T04:18:46;101431.34;;;25.74;60.73
54266;BME280;40836;39.770;2.714;2022-08-01T04:21:13;101428.19;;;25.76;60.66
54266;BME280;40836;39.770;2.714;2022-08-01T04:23:41;101433.28;;;25.70;61.15
54266;BME280;40836;39.770;2.714;2022-08-01T04:26:08;101429.63;;;25.55;61.63
54266;BME280;40836;39.770;2.714;2022-08-01T04:28:36;101427.63;;;25.52;62.20
54266;BME280;40836;39.770;2.714;2022-08-01T04:31:04;101419.97;;;25.38;62.52
54266;BME280;40836;39.770;2.714;2022-08-01T04:33:31;101427.91;;;25.44;62.35
54266;BME280;40836;39.770;2.714;2022-08-01T04:36:03;101417.59;;;25.37;62.01
54266;BME280;40836;39.770;2.714;2022-08-01T04:38:30;101435.84;;;25.45;61.79
54266;BME280;40836;39.770;2.714;2022-08-01T04:40:57;101432.22;;;25.41;61.87
54266;BME280;40836;39.770;2.714;2022-08-01T04:43:23;101433.84;;;25.42;61.72
54266;BME280;40836;39.770;2.714;2022-08-01T04:45:50;101432.22;;;25.41;61.99
54266;BME280;40836;39.770;2.714;2022-08-01T04:48:17;101413.91;;;25.22;62.29
54266;BME280;40836;39.770;2.714;2022-08-01T04:50:45;101437.31;;;25.35;62.54
54266;BME280;40836;39.770;2.714;2022-08-01T04:53:15;101426.22;;;25.32;61.90
54266;BME280;40836;39.770;2.714;2022-08-01T04:55:45;101434.56;;;25.35;62.06
54266;BME280;40836;39.770;2.714;2022-08-01T04:58:11;101433.38;;;25.36;62.18
54266;BME280;40836;39.770;2.714;2022-08-01T05:00:37;101440.41;;;25.30;62.19
54266;BME280;40836;39.770;2.714;2022-08-01T05:03:03;101442.78;;;25.32;62.37
54266;BME280;40836;39.770;2.714;2022-08-01T05:05:28;101422.63;;;25.24;63.06
54266;BME280;40836;39.770;2.714;2022-08-01T05:07:55;101443.22;;;25.34;62.82
54266;BME280;40836;39.770;2.714;2022-08-01T05:10:21;101444.41;;;25.33;63.12
54266;BME280;40836;39.770;2.714;2022-08-01T05:12:46;101443.94;;;25.27;63.27
54266;BME280;40836;39.770;2.714;2022-08-01T05:15:12;101445.19;;;25.33;62.91
54266;BME280;40836;39.770;2.714;2022-08-01T05:17:38;101429.69;;;25.22;63.04
54266;BME280;40836;39.770;2.714;2022-08-01T05:20:04;101450.72;;;25.33;62.60
54266;BME280;40836;39.770;2.714;2022-08-01T05:22:31;101445.22;;;25.37;62.96
54266;BME280;40836;39.770;2.714;2022-08-01T05:24:57;101456.69;;;25.39;62.89
54266;BME280;40836;39.770;2.714;2022-08-01T05:27:22;101449.56;;;25.38;62.27
54266;BME280;40836;39.770;2.714;2022-08-01T05:29:48;101456.72;;;25.43;62.31
54266;BME280;40836;39.770;2.714;2022-08-01T05:32:13;101462.25;;;25.43;62.45
54266;BME280;40836;39.770;2.714;2022-08-01T05:34:39;101454.34;;;25.45;62.71
54266;BME280;40836;39.770;2.714;2022-08-01T05:37:04;101463.47;;;25.49;62.97
54266;BME280;40836;39.770;2.714;2022-08-01T05:39:30;101433.38;;;25.36;63.34
54266;BME280;40836;39.770;2.714;2022-08-01T05:41:55;101439.38;;;25.42;63.32
54266;BME280;40836;39.770;2.714;2022-08-01T05:44:21;101455.56;;;25.47;63.64
54266;BME280;40836;39.770;2.714;2022-08-01T05:46:46;101463.53;;;25.56;63.20
54266;BME280;40836;39.770;2.714;2022-08-01T05:49:12;101465.09;;;25.53;63.29
54266;BME280;40836;39.770;2.714;2022-08-01T05:51:37;101455.63;;;25.54;63.26
54266;BME280;40836;39.770;2.714;2022-08-01T05:54:04;101458.78;;;25.53;63.30
54266;BME280;40836;39.770;2.714;2022-08-01T05:56:29;101466.75;;;25.62;63.59
54266;BME280;40836;39.770;2.714;2022-08-01T05:58:55;101465.94;;;25.61;62.98
54266;BME280;40836;39.770;2.714;2022-08-01T06:01:20;101442.56;;;25.51;62.31
54266;BME280;40836;39.770;2.714;2022-08-01T06:03:46;101462.69;;;25.93;62.22
54266;BME280;40836;39.770;2.714;2022-08-01T06:06:11;101465.63;;;26.14;60.23
54266;BME280;40836;39.770;2.714;2022-08-01T06:08:37;101469.72;;;26.38;59.83
54266;BME280;40836;39.770;2.714;2022-08-01T06:11:03;101461.91;;;26.51;58.55
54266;BME280;40836;39.770;2.714;2022-08-01T06:13:28;101471.13;;;26.76;57.85
54266;BME280;40836;39.770;2.714;2022-08-01T06:15:54;101463.69;;;26.91;57.62
54266;BME280;40836;39.770;2.714;2022-08-01T06:18:20;101484.34;;;27.15;57.36
54266;BME280;40836;39.770;2.714;2022-08-01T06:20:45;101472.91;;;27.35;55.16
54266;BME280;40836;39.770;2.714;2022-08-01T06:23:11;101477.31;;;27.54;54.64
54266;BME280;40836;39.770;2.714;2022-08-01T06:25:36;101484.44;;;27.65;54.01
54266;BME280;40836;39.770;2.714;2022-08-01T06:28:02;101476.16;;;27.83;53.08
54266;BME280;40836;39.770;2.714;2022-08-01T06:30:27;101468.63;;;27.87;53.33
54266;BME280;40836;39.770;2.714;2022-08-01T06:32:53;101468.22;;;28.03;53.02
54266;BME280;40836;39.770;2.714;2022-08-01T06:35:21;101485.66;;;28.14;52.47
54266;BME280;40836;39.770;2.714;2022-08-01T06:37:47;101478.06;;;28.29;52.07
54266;BME280;40836;39.770;2.714;2022-08-01T06:40:13;101468.97;;;28.29;52.01
54266;BME280;40836;39.770;2.714;2022-08-01T06:42:38;101472.50;;;28.54;53.20
54266;BME280;40836;39.770;2.714;2022-08-01T06:45:09;101472.81;;;28.74;53.26
54266;BME280;40836;39.770;2.714;2022-08-01T06:47:36;101483.84;;;28.96;51.96
54266;BME280;40836;39.770;2.714;2022-08-01T06:50:02;101470.38;;;29.01;51.21
54266;BME280;40836;39.770;2.714;2022-08-01T06:52:28;101476.19;;;29.21;50.38
54266;BME280;40836;39.770;2.714;2022-08-01T06:54:53;101485.25;;;29.36;49.59
54266;BME280;40836;39.770;2.714;2022-08-01T06:57:19;101477.19;;;29.52;50.08
54266;BME280;40836;39.770;2.714;2022-08-01T06:59:44;101481.06;;;29.69;48.95
54266;BME280;40836;39.770;2.714;2022-08-01T07:02:10;101474.63;;;29.80;48.59
54266;BME280;40836;39.770;2.714;2022-08-01T07:04:35;101476.16;;;29.84;48.61
54266;BME280;40836;39.770;2.714;2022-08-01T07:07:01;101454.72;;;29.81;48.18
54266;BME280;40836;39.770;2.714;2022-08-01T07:09:26;101480.22;;;30.17;48.42
54266;BME280;40836;39.770;2.714;2022-08-01T07:11:52;101490.06;;;30.29;48.33
54266;BME280;40836;39.770;2.714;2022-08-01T07:14:20;101486.31;;;30.47;46.42
54266;BME280;40836;39.770;2.714;2022-08-01T07:16:45;101486.72;;;30.45;46.98
54266;BME280;40836;39.770;2.714;2022-08-01T07:19:11;101483.78;;;30.59;46.32
54266;BME280;40836;39.770;2.714;2022-08-01T07:21:37;101488.38;;;30.73;45.06
54266;BME280;40836;39.770;2.714;2022-08-01T07:24:04;101496.91;;;30.93;45.54
54266;BME280;40836;39.770;2.714;2022-08-01T07:26:30;101501.94;;;31.05;44.38
54266;BME280;40836;39.770;2.714;2022-08-01T07:28:56;101489.53;;;31.10;44.94
54266;BME280;40836;39.770;2.714;2022-08-01T07:31:22;101503.56;;;31.30;44.33
54266;BME280;40836;39.770;2.714;2022-08-01T07:33:48;101501.16;;;31.32;44.31
54266;BME280;40836;39.770;2.714;2022-08-01T07:36:14;101503.72;;;31.50;44.67
54266;BME280;40836;39.770;2.714;2022-08-01T07:38:39;101505.53;;;31.60;43.99
54266;BME280;40836;39.770;2.714;2022-08-01T07:41:05;101492.78;;;31.63;44.49
54266;BME280;40836;39.770;2.714;2022-08-01T07:43:30;101511.63;;;31.78;44.07
54266;BME280;40836;39.770;2.714;2022-08-01T07:45:56;101519.78;;;31.93;43.48
54266;BME280;40836;39.770;2.714;2022-08-01T07:48:21;101508.94;;;31.98;43.08
54266;BME280;40836;39.770;2.714;2022-08-01T07:50:50;101520.34;;;32.08;44.00
54266;BME280;40836;39.770;2.714;2022-08-01T07:53:15;101514.50;;;32.22;44.57
54266;BME280;40836;39.770;2.714;2022-08-01T07:55:41;101514.72;;;32.31;44.59
54266;BME280;40836;39.770;2.714;2022-08-01T07:58:07;101517.16;;;32.29;45.74
54266;BME280;40836;39.770;2.714;2022-08-01T08:00:32;101514.97;;;32.40;46.52
54266;BME280;40836;39.770;2.714;2022-08-01T08:02:58;101521.13;;;32.51;46.05
54266;BME280;40836;39.770;2.714;2022-08-01T08:05:25;101514.63;;;32.58;46.25
54266;BME280;40836;39.770;2.714;2022-08-01T08:07:51;101512.63;;;32.59;47.20
54266;BME280;40836;39.770;2.714;2022-08-01T08:10:16;101500.97;;;32.64;46.09
54266;BME280;40836;39.770;2.714;2022-08-01T08:12:42;101511.81;;;32.78;46.73
54266;BME280;40836;39.770;2.714;2022-08-01T08:15:07;101500.88;;;32.67;47.76
54266;BME280;40836;39.770;2.714;2022-08-01T08:17:33;101497.94;;;32.74;47.46
54266;BME280;40836;39.770;2.714;2022-08-01T08:19:59;101522.34;;;32.90;47.43
54266;BME280;40836;39.770;2.714;2022-08-01T08:22:24;101513.69;;;32.85;48.19
54266;BME280;40836;39.770;2.714;2022-08-01T08:24:50;101517.28;;;32.85;48.29
54266;BME280;40836;39.770;2.714;2022-08-01T08:27:15;101508.16;;;32.81;47.99
54266;BME280;40836;39.770;2.714;2022-08-01T08:29:41;101511.88;;;32.94;48.80
54266;BME280;40836;39.770;2.714;2022-08-01T08:32:07;101509.75;;;33.02;48.42
54266;BME280;40836;39.770;2.714;2022-08-01T08:34:32;101520.66;;;32.96;47.94
54266;BME280;40836;39.770;2.714;2022-08-01T08:36:58;101516.06;;;33.06;48.00
54266;BME280;40836;39.770;2.714;2022-08-01T08:39:25;101510.47;;;33.06;49.19
54266;BME280;40836;39.770;2.714;2022-08-01T08:41:51;101510.69;;;32.95;48.61
54266;BME280;40836;39.770;2.714;2022-08-01T08:44:17;101515.56;;;33.11;49.19
54266;BME280;40836;39.770;2.714;2022-08-01T08:46:45;101518.28;;;33.15;48.43
54266;BME280;40836;39.770;2.714;2022-08-01T08:49:15;101502.38;;;33.12;48.65
54266;BME280;40836;39.770;2.714;2022-08-01T08:51:42;101519.41;;;33.17;48.29
54266;BME280;40836;39.770;2.714;2022-08-01T08:54:10;101530.53;;;33.01;48.33
54266;BME280;40836;39.770;2.714;2022-08-01T08:56:37;101521.34;;;33.20;48.25
54266;BME280;40836;39.770;2.714;2022-08-01T08:59:03;101515.31;;;33.22;48.04
54266;BME280;40836;39.770;2.714;2022-08-01T09:01:30;101520.41;;;33.27;48.03
54266;BME280;40836;39.770;2.714;2022-08-01T09:03:57;101521.09;;;33.31;47.98
54266;BME280;40836;39.770;2.714;2022-08-01T09:06:24;101513.50;;;33.32;47.72
54266;BME280;40836;39.770;2.714;2022-08-01T09:08:49;101512.53;;;33.38;48.14
54266;BME280;40836;39.770;2.714;2022-08-01T09:11:15;101509.47;;;33.33;48.43
54266;BME280;40836;39.770;2.714;2022-08-01T09:13:41;101520.03;;;33.25;48.17
54266;BME280;40836;39.770;2.714;2022-08-01T09:16:07;101517.94;;;33.29;47.68
54266;BME280;40836;39.770;2.714;2022-08-01T09:18:35;101515.22;;;33.26;48.31
54266;BME280;40836;39.770;2.714;2022-08-01T09:21:13;101516.75;;;33.30;49.04
54266;BME280;40836;39.770;2.714;2022-08-01T09:23:50;101527.81;;;33.17;49.22
54266;BME280;40836;39.770;2.714;2022-08-01T09:26:18;101514.41;;;33.09;49.42
54266;BME280;40836;39.770;2.714;2022-08-01T09:28:45;101521.94;;;33.12;50.01
54266;BME280;40836;39.770;2.714;2022-08-01T09:31:16;101523.06;;;33.14;50.05
54266;BME280;40836;39.770;2.714;2022-08-01T09:33:53;101527.28;;;33.22;48.64
54266;BME280;40836;39.770;2.714;2022-08-01T09:36:46;101533.66;;;33.23;48.92
54266;BME280;40836;39.770;2.714;2022-08-01T09:39:17;101528.88;;;33.04;50.13
54266;BME280;40836;39.770;2.714;2022-08-01T09:41:42;101530.53;;;33.01;49.16
54266;BME280;40836;39.770;2.714;2022-08-01T09:44:08;101539.25;;;32.83;49.71
54266;BME280;40836;39.770;2.714;2022-08-01T09:46:34;101510.75;;;32.72;48.86
54266;BME280;40836;39.770;2.714;2022-08-01T09:49:04;101532.44;;;32.84;49.01
54266;BME280;40836;39.770;2.714;2022-08-01T09:51:37;101538.19;;;32.77;49.16
54266;BME280;40836;39.770;2.714;2022-08-01T09:54:04;101530.88;;;32.83;49.34
54266;BME280;40836;39.770;2.714;2022-08-01T09:56:41;101516.63;;;32.78;49.59
54266;BME280;40836;39.770;2.714;2022-08-01T09:59:11;101521.13;;;32.91;49.43
54266;BME280;40836;39.770;2.714;2022-08-01T10:01:45;101525.38;;;32.99;48.18
54266;BME280;40836;39.770;2.714;2022-08-01T10:06:37;101522.88;;;32.85;49.16
54266;BME280;40836;39.770;2.714;2022-08-01T10:09:03;101506.38;;;32.71;49.36
54266;BME280;40836;39.770;2.714;2022-08-01T10:11:28;101515.44;;;32.79;49.26
54266;BME280;40836;39.770;2.714;2022-08-01T10:13:56;101521.19;;;32.88;49.73
54266;BME280;40836;39.770;2.714;2022-08-01T10:16:26;101515.28;;;32.66;50.65
54266;BME280;40836;39.770;2.714;2022-08-01T10:18:53;101521.34;;;32.81;49.99
54266;BME280;40836;39.770;2.714;2022-08-01T10:21:19;101515.84;;;32.77;50.27
54266;BME280;40836;39.770;2.714;2022-08-01T10:23:46;101506.97;;;32.82;50.27
54266;BME280;40836;39.770;2.714;2022-08-01T10:26:12;101500.44;;;32.89;49.44
54266;BME280;40836;39.770;2.714;2022-08-01T10:28:38;101514.34;;;32.92;49.42
54266;BME280;40836;39.770;2.714;2022-08-01T10:31:04;101509.31;;;32.84;49.37
54266;BME280;40836;39.770;2.714;2022-08-01T10:33:30;101501.47;;;32.79;49.34
54266;BME280;40836;39.770;2.714;2022-08-01T10:35:57;101516.75;;;32.90;48.88
54266;BME280;40836;39.770;2.714;2022-08-01T10:38:22;101517.41;;;32.58;49.17
54266;BME280;40836;39.770;2.714;2022-08-01T10:40:51;101520.56;;;32.60;49.43
54266;BME280;40836;39.770;2.714;2022-08-01T10:43:18;101508.31;;;32.74;48.91
54266;BME280;40836;39.770;2.714;2022-08-01T10:45:44;101506.38;;;32.71;48.19
54266;BME280;40836;39.770;2.714;2022-08-01T10:50:45;101503.97;;;32.73;48.44
54266;BME280;40836;39.770;2.714;2022-08-01T10:53:22;101501.03;;;32.80;48.14
54266;BME280;40836;39.770;2.714;2022-08-01T11:01:24;101493.94;;;32.56;47.98
54266;BME280;40836;39.770;2.714;2022-08-01T11:06:28;101491.44;;;32.61;47.61
54266;BME280;40836;39.770;2.714;2022-08-01T11:11:57;101493.00;;;32.62;46.96
54266;BME280;40836;39.770;2.714;2022-08-01T11:14:22;101494.81;;;32.72;46.52
54266;BME280;40836;39.770;2.714;2022-08-01T11:16:48;101497.88;;;32.58;46.10
54266;BME280;40836;39.770;2.714;2022-08-01T11:19:13;101489.72;;;32.67;45.93
54266;BME280;40836;39.770;2.714;2022-08-01T11:27:27;101485.50;;;32.59;45.75
54266;BME280;40836;39.770;2.714;2022-08-01T11:32:46;101490.78;;;32.73;46.64
54266;BME280;40836;39.770;2.714;2022-08-01T11:35:13;101488.63;;;32.81;46.61
54266;BME280;40836;39.770;2.714;2022-08-01T11:37:39;101490.13;;;32.86;46.70
54266;BME280;40836;39.770;2.714;2022-08-01T11:40:24;101478.88;;;32.89;46.50
54266;BME280;40836;39.770;2.714;2022-08-01T11:43:16;101475.75;;;32.67;46.59
54266;BME280;40836;39.770;2.714;2022-08-01T11:48:23;101479.97;;;32.56;46.66
54266;BME280;40836;39.770;2.714;2022-08-01T11:50:50;101476.31;;;32.59;46.52
54266;BME280;40836;39.770;2.714;2022-08-01T11:53:17;101458.06;;;32.54;46.86
54266;BME280;40836;39.770;2.714;2022-08-01T11:55:53;101462.72;;;32.61;46.11
54266;BME280;40836;39.770;2.714;2022-08-01T11:58:22;101456.28;;;32.64;47.21
54266;BME280;40836;39.770;2.714;2022-08-01T12:00:56;101456.50;;;32.73;46.33
54266;BME280;40836;39.770;2.714;2022-08-01T12:03:27;101450.25;;;32.65;46.89
54266;BME280;40836;39.770;2.714;2022-08-01T12:05:54;101448.88;;;32.73;47.12
54266;BME280;40836;39.770;2.714;2022-08-01T12:08:31;101454.69;;;32.83;45.86
54266;BME280;40836;39.770;2.714;2022-08-01T12:10:59;101455.25;;;32.74;46.92
54266;BME280;40836;39.770;2.714;2022-08-01T12:13:25;101445.66;;;32.75;46.42
54266;BME280;40836;39.770;2.714;2022-08-01T12:15:50;101454.59;;;32.86;46.56
54266;BME280;40836;39.770;2.714;2022-08-01T12:18:16;101451.66;;;32.93;46.00
54266;BME280;40836;39.770;2.714;2022-08-01T12:20:43;101447.38;;;32.89;45.86
54266;BME280;40836;39.770;2.714;2022-08-01T12:23:12;101443.06;;;32.84;46.48
54266;BME280;40836;39.770;2.714;2022-08-01T12:25:38;101436.94;;;32.73;46.32
54266;BME280;40836;39.770;2.714;2022-08-01T12:28:09;101443.69;;;32.75;46.48
54266;BME280;40836;39.770;2.714;2022-08-01T12:30:36;101446.03;;;32.77;46.06
54266;BME280;40836;39.770;2.714;2022-08-01T12:33:04;101442.25;;;32.67;45.97
54266;BME280;40836;39.770;2.714;2022-08-01T12:35:30;101445.19;;;32.60;46.64
54266;BME280;40836;39.770;2.714;2022-08-01T12:37:59;101435.59;;;32.61;46.33
54266;BME280;40836;39.770;2.714;2022-08-01T12:40:30;101431.06;;;32.67;46.84
54266;BME280;40836;39.770;2.714;2022-08-01T12:43:01;101436.72;;;32.64;46.43
54266;BME280;40836;39.770;2.714;2022-08-01T12:47:59;101425.47;;;32.67;45.75
54266;BME280;40836;39.770;2.714;2022-08-01T12:50:28;101434.72;;;32.64;46.25
54266;BME280;40836;39.770;2.714;2022-08-01T12:52:55;101425.78;;;32.73;45.72
54266;BME280;40836;39.770;2.714;2022-08-01T12:55:22;101417.97;;;32.64;46.14
54266;BME280;40836;39.770;2.714;2022-08-01T12:58:03;101419.22;;;32.43;46.63
54266;BME280;40836;39.770;2.714;2022-08-01T13:00:29;101441.69;;;32.56;47.05
54266;BME280;40836;39.770;2.714;2022-08-01T13:03:05;101424.13;;;32.56;47.35
54266;BME280;40836;39.770;2.714;2022-08-01T13:05:42;101430.16;;;32.54;47.78
54266;BME280;40836;39.770;2.714;2022-08-01T13:08:23;101431.78;;;32.51;48.43
54266;BME280;40836;39.770;2.714;2022-08-01T13:10:49;101421.34;;;32.56;48.76
54266;BME280;40836;39.770;2.714;2022-08-01T13:13:17;101427.78;;;32.52;49.64
54266;BME280;40836;39.770;2.714;2022-08-01T13:15:44;101417.25;;;32.40;49.77
54266;BME280;40836;39.770;2.714;2022-08-01T13:18:28;101431.00;;;32.51;49.23
54266;BME280;40836;39.770;2.714;2022-08-01T13:21:10;101434.25;;;32.49;49.62
54266;BME280;40836;39.770;2.714;2022-08-01T13:23:36;101438.09;;;32.56;48.85
54266;BME280;40836;39.770;2.714;2022-08-01T13:26:03;101431.31;;;32.57;49.14
54266;BME280;40836;39.770;2.714;2022-08-01T13:28:28;101433.03;;;32.50;49.48
54266;BME280;40836;39.770;2.714;2022-08-01T13:31:06;101422.41;;;32.42;49.78
54266;BME280;40836;39.770;2.714;2022-08-01T13:33:45;101432.25;;;32.26;50.58
54266;BME280;40836;39.770;2.714;2022-08-01T13:36:12;101430.84;;;32.38;51.77